Time;durP1;ratioP1;P1;durP2;ratioP2;P2;SDS_P1;SDS_P2;PMS_P1;PMS_P2;Temp;Humidity;BMP_temperature;BMP_pressure;BME280_temperature;BME280_humidity;BME280_pressure;Samples;Min_cycle;Max_cycle;Signal;HPM_P1;HPM_P2
2021/03/05 00:00:11;;;;;;;6.13;4.22;;;10.80;63.80;;;;;;5102572;28;20023;-68
2021/03/05 00:02:37;;;;;;;9.07;5.35;;;10.70;63.80;;;;;;5102583;28;20046;-67
2021/03/05 00:05:04;;;;;;;7.80;5.10;;;10.70;64.40;;;;;;5101259;28;20095;-67
2021/03/05 00:07:30;;;;;;;6.93;4.65;;;10.70;63.80;;;;;;5102428;28;20236;-67
2021/03/05 00:09:55;;;;;;;9.07;4.80;;;10.70;63.80;;;;;;5102428;28;20057;-68
2021/03/05 00:12:21;;;;;;;7.65;4.93;;;10.70;63.70;;;;;;5102382;28;20051;-68
2021/03/05 00:14:47;;;;;;;7.25;4.88;;;10.70;63.70;;;;;;5101220;28;20024;-68
2021/03/05 00:17:13;;;;;;;7.22;4.60;;;10.70;63.80;;;;;;5101027;28;20307;-67
2021/03/05 00:19:39;;;;;;;7.30;4.50;;;10.70;64.50;;;;;;5102235;28;20075;-68
2021/03/05 00:22:06;;;;;;;5.43;4.13;;;10.70;63.70;;;;;;5102237;28;20323;-67
2021/03/05 00:24:32;;;;;;;8.13;5.35;;;10.70;63.80;;;;;;5102161;28;20028;-67
2021/03/05 00:26:58;;;;;;;6.53;4.45;;;10.70;63.70;;;;;;5102251;28;20356;-67
2021/03/05 00:29:24;;;;;;;7.53;4.57;;;10.70;63.80;;;;;;5102184;28;20028;-68
2021/03/05 00:31:50;;;;;;;6.75;4.68;;;10.70;63.80;;;;;;5102196;28;20319;-67
2021/03/05 00:34:16;;;;;;;7.50;5.18;;;10.70;63.80;;;;;;5102188;28;20074;-67
2021/03/05 00:36:42;;;;;;;6.18;4.53;;;10.70;63.80;;;;;;5102125;28;20230;-68
2021/03/05 00:39:08;;;;;;;8.38;4.45;;;10.70;63.90;;;;;;5101894;28;20075;-67
2021/03/05 00:41:35;;;;;;;8.25;5.13;;;10.70;63.90;;;;;;5102130;28;20018;-68
2021/03/05 00:44:02;;;;;;;8.68;4.85;;;10.70;63.90;;;;;;5102069;28;20548;-68
2021/03/05 00:46:28;;;;;;;6.53;4.70;;;10.70;63.90;;;;;;5102060;28;20012;-68
2021/03/05 00:48:54;;;;;;;7.15;4.13;;;10.70;63.80;;;;;;5101953;28;20016;-68
2021/03/05 00:51:20;;;;;;;8.88;4.68;;;10.70;63.80;;;;;;5101971;28;20073;-67
2021/03/05 00:53:46;;;;;;;7.90;4.63;;;10.70;63.80;;;;;;5101999;28;20027;-69
2021/03/05 00:56:11;;;;;;;9.02;4.32;;;10.70;63.80;;;;;;5101951;28;20362;-68
2021/03/05 00:58:37;;;;;;;6.13;4.35;;;10.70;63.70;;;;;;5101870;28;20023;-68
2021/03/05 01:01:03;;;;;;;7.68;4.40;;;10.70;63.70;;;;;;5101899;28;20275;-68
2021/03/05 01:03:29;;;;;;;6.55;4.38;;;10.70;63.80;;;;;;5101866;28;20027;-68
2021/03/05 01:05:55;;;;;;;6.45;4.20;;;10.70;63.90;;;;;;5101861;28;20405;-68
2021/03/05 01:08:21;;;;;;;6.45;4.43;;;10.70;63.80;;;;;;5101866;28;20242;-69
2021/03/05 01:10:46;;;;;;;8.90;5.10;;;10.70;63.80;;;;;;5101800;28;20035;-69
2021/03/05 01:13:12;;;;;;;6.57;3.65;;;10.70;63.80;;;;;;5101773;28;20091;-69
2021/03/05 01:15:38;;;;;;;10.35;5.80;;;10.70;63.80;;;;;;5101774;28;20020;-68
2021/03/05 01:18:04;;;;;;;6.97;4.70;;;10.70;63.70;;;;;;5101663;28;20380;-67
2021/03/05 01:20:30;;;;;;;8.00;4.97;;;10.70;63.80;;;;;;5101721;28;20122;-67
2021/03/05 01:22:56;;;;;;;8.55;4.97;;;10.70;63.80;;;;;;5101716;28;20023;-67
2021/03/05 01:25:25;;;;;;;7.68;4.35;;;10.70;63.70;;;;;;5101668;28;20055;-69
2021/03/05 01:27:51;;;;;;;7.20;4.35;;;10.70;63.80;;;;;;5101676;28;20077;-67
2021/03/05 01:30:17;;;;;;;7.65;4.65;;;10.70;63.80;;;;;;5101668;28;20032;-69
2021/03/05 01:32:44;;;;;;;9.35;4.63;;;10.70;63.80;;;;;;5101634;28;20331;-67
2021/03/05 01:35:15;;;;;;;6.68;4.43;;;10.60;63.80;;;;;;5101620;28;20095;-68
2021/03/05 01:37:41;;;;;;;8.30;4.68;;;10.70;63.90;;;;;;5103541;28;20023;-68
2021/03/05 01:40:12;;;;;;;7.03;4.22;;;10.70;63.90;;;;;;5105105;28;20040;-67
2021/03/05 01:42:37;;;;;;;7.13;4.25;;;10.60;63.80;;;;;;5105133;28;20235;-70
2021/03/05 01:45:13;;;;;;;6.00;4.15;;;10.70;63.80;;;;;;5105123;28;20020;-68
2021/03/05 01:47:39;;;;;;;5.15;4.10;;;10.70;63.80;;;;;;5105067;28;20041;-68
2021/03/05 01:50:27;;;;;;;6.32;3.95;;;10.60;63.80;;;;;;5105017;28;20215;-68
2021/03/05 01:52:59;;;;;;;6.18;4.03;;;10.60;63.80;;;;;;5105023;28;20088;-68
2021/03/05 01:55:25;;;;;;;6.82;4.63;;;10.60;63.80;;;;;;5104970;28;20069;-66
2021/03/05 01:57:51;;;;;;;6.30;4.35;;;10.60;63.80;;;;;;5104787;28;20037;-68
2021/03/05 02:00:21;;;;;;;6.18;4.55;;;10.70;63.80;;;;;;5104872;28;20141;-68
2021/03/05 02:02:47;;;;;;;8.43;4.68;;;10.60;63.80;;;;;;5104861;28;20087;-68
2021/03/05 02:05:13;;;;;;;7.93;4.15;;;10.60;63.80;;;;;;5104707;28;20012;-67
2021/03/05 02:07:40;;;;;;;6.97;4.25;;;10.60;63.80;;;;;;5103519;28;20216;-67
2021/03/05 02:10:07;;;;;;;6.55;4.35;;;10.60;63.80;;;;;;5104647;28;20085;-67
2021/03/05 02:12:34;;;;;;;7.40;4.72;;;10.60;63.80;;;;;;5104627;28;20216;-68
2021/03/05 02:15:00;;;;;;;7.30;4.35;;;10.60;63.80;;;;;;5104549;28;20048;-69
2021/03/05 02:17:33;;;;;;;6.03;4.75;;;10.60;63.80;;;;;;5104475;28;20027;-69
2021/03/05 02:20:10;;;;;;;6.68;4.55;;;10.60;63.90;;;;;;5104556;28;20311;-68
2021/03/05 02:22:57;;;;;;;6.07;4.25;;;10.60;63.80;;;;;;5104444;28;20038;-67
2021/03/05 02:25:56;;;;;;;6.45;4.60;;;10.60;63.80;;;;;;5103219;28;20023;-68
2021/03/05 02:28:43;;;;;;;7.10;4.57;;;10.60;63.80;;;;;;5104318;28;20028;-68
2021/03/05 02:31:28;;;;;;;8.15;4.63;;;10.60;63.80;;;;;;5104331;28;20058;-68
2021/03/05 02:34:06;;;;;;;7.47;4.35;;;10.60;63.80;;;;;;5104217;28;20343;-68
2021/03/05 02:37:01;;;;;;;7.22;5.20;;;10.60;63.80;;;;;;5104176;28;20059;-68
2021/03/05 02:39:53;;;;;;;7.38;5.03;;;10.60;63.90;;;;;;5103946;28;20059;-68
2021/03/05 02:42:31;;;;;;;8.70;5.03;;;10.60;63.90;;;;;;5080414;28;20045;-67
2021/03/05 02:45:10;;;;;;;7.10;4.60;;;10.60;63.80;;;;;;5104090;28;20028;-67
2021/03/05 02:47:39;;;;;;;5.50;4.10;;;10.60;63.80;;;;;;5103778;28;20016;-67
2021/03/05 02:50:07;;;;;;;7.10;4.18;;;10.60;63.90;;;;;;5103055;28;20043;-67
2021/03/05 02:52:34;;;;;;;7.43;4.97;;;10.60;63.90;;;;;;5103809;28;20050;-67
2021/03/05 02:55:04;;;;;;;8.07;5.03;;;10.60;63.80;;;;;;5103783;28;20019;-68
2021/03/05 02:57:34;;;;;;;7.40;4.60;;;10.60;63.90;;;;;;5103617;28;20016;-67
2021/03/05 03:00:04;;;;;;;7.32;4.70;;;10.60;63.90;;;;;;5103752;28;20327;-67
2021/03/05 03:02:33;;;;;;;7.72;4.85;;;10.60;63.80;;;;;;5103620;28;20020;-68
2021/03/05 03:05:00;;;;;;;6.63;4.60;;;10.60;63.90;;;;;;5103614;28;20208;-68
2021/03/05 03:07:26;;;;;;;6.80;4.45;;;10.60;63.80;;;;;;5103500;28;20012;-67
2021/03/05 03:09:52;;;;;;;11.20;4.72;;;10.60;63.90;;;;;;5103458;28;20250;-68
2021/03/05 03:12:19;;;;;;;6.60;4.80;;;10.60;63.90;;;;;;5103484;28;20063;-69
2021/03/05 03:14:48;;;;;;;6.25;4.45;;;10.60;63.90;;;;;;5103437;28;20016;-68
2021/03/05 03:17:15;;;;;;;6.65;4.47;;;10.60;64.00;;;;;;5103302;28;20012;-68
2021/03/05 03:19:49;;;;;;;5.95;4.22;;;10.60;63.90;;;;;;5103219;28;20015;-68
2021/03/05 03:22:15;;;;;;;6.78;4.40;;;10.50;63.80;;;;;;5103228;28;20016;-68
2021/03/05 03:24:41;;;;;;;6.47;4.40;;;10.60;63.80;;;;;;5103217;28;20034;-67
2021/03/05 03:27:08;;;;;;;7.32;4.75;;;10.60;63.80;;;;;;5103213;28;20336;-68
2021/03/05 03:29:33;;;;;;;8.55;5.03;;;10.50;63.70;;;;;;5103141;28;20016;-67
2021/03/05 03:31:59;;;;;;;6.80;4.00;;;10.50;63.80;;;;;;5103105;28;20312;-67
2021/03/05 03:34:26;;;;;;;5.43;4.20;;;10.60;63.80;;;;;;5102981;28;20228;-68
2021/03/05 03:36:53;;;;;;;6.72;4.47;;;10.60;63.80;;;;;;5102915;28;20032;-68
2021/03/05 03:39:19;;;;;;;5.85;4.55;;;10.60;63.80;;;;;;5102721;28;20115;-67
2021/03/05 03:41:45;;;;;;;7.68;4.35;;;10.50;63.80;;;;;;5102909;28;20020;-68
2021/03/05 03:44:12;;;;;;;6.25;4.47;;;10.60;63.90;;;;;;5102869;28;20022;-68
2021/03/05 03:46:47;;;;;;;6.82;4.45;;;10.60;63.90;;;;;;5102821;28;20053;-68
2021/03/05 03:49:19;;;;;;;8.00;4.82;;;10.60;63.80;;;;;;5102806;28;20024;-68
2021/03/05 03:51:52;;;;;;;8.00;4.68;;;10.60;63.80;;;;;;5102750;28;20020;-68
2021/03/05 03:54:20;;;;;;;7.60;5.25;;;10.60;63.80;;;;;;5102733;28;20023;-68
2021/03/05 03:56:47;;;;;;;6.57;4.35;;;10.50;63.80;;;;;;5102646;28;20208;-68
2021/03/05 03:59:15;;;;;;;7.85;4.13;;;10.50;63.70;;;;;;5102387;28;20012;-68
2021/03/05 04:01:49;;;;;;;7.60;4.25;;;10.50;63.80;;;;;;5102496;28;20111;-69
2021/03/05 04:04:16;;;;;;;6.40;4.20;;;10.60;63.80;;;;;;5102518;28;20065;-68
2021/03/05 04:06:46;;;;;;;7.35;4.97;;;10.50;63.80;;;;;;5102480;28;20020;-69
2021/03/05 04:09:15;;;;;;;7.30;4.82;;;10.50;63.80;;;;;;5102497;28;20028;-69
2021/03/05 04:11:41;;;;;;;10.10;5.22;;;10.50;63.80;;;;;;5102467;28;20034;-67
2021/03/05 04:14:08;;;;;;;7.40;4.25;;;10.50;63.90;;;;;;5102481;28;20032;-68
2021/03/05 04:16:33;;;;;;;5.60;4.15;;;10.50;63.90;;;;;;5102364;28;20065;-67
2021/03/05 04:18:59;;;;;;;5.70;4.15;;;10.50;63.80;;;;;;5102291;28;20212;-67
2021/03/05 04:21:31;;;;;;;8.10;4.88;;;10.50;63.90;;;;;;5102343;28;20425;-67
2021/03/05 04:23:57;;;;;;;6.40;4.25;;;10.50;63.90;;;;;;5102319;28;20020;-69
2021/03/05 04:26:23;;;;;;;5.35;3.75;;;10.50;63.80;;;;;;5102245;28;20050;-67
2021/03/05 04:28:49;;;;;;;7.55;4.45;;;10.50;63.80;;;;;;5102281;28;20027;-68
2021/03/05 04:31:15;;;;;;;5.95;4.00;;;10.50;63.90;;;;;;5102219;28;20024;-68
2021/03/05 04:33:40;;;;;;;6.63;4.35;;;10.50;63.90;;;;;;5102195;28;20087;-68
2021/03/05 04:36:06;;;;;;;7.32;4.25;;;10.50;63.80;;;;;;5102188;28;20031;-68
2021/03/05 04:38:32;;;;;;;6.43;4.05;;;10.50;63.70;;;;;;5101879;28;20052;-68
2021/03/05 04:40:58;;;;;;;8.90;5.05;;;10.50;63.80;;;;;;5102120;28;20020;-68
2021/03/05 04:43:24;;;;;;;7.68;4.90;;;10.50;63.80;;;;;;5102041;28;20018;-67
2021/03/05 04:45:50;;;;;;;6.13;3.90;;;10.50;63.80;;;;;;5100941;28;20257;-68
2021/03/05 04:48:16;;;;;;;6.80;4.07;;;10.50;63.80;;;;;;5102060;28;20020;-68
2021/03/05 04:50:43;;;;;;;7.22;4.57;;;10.50;63.80;;;;;;5102019;28;20039;-69
2021/03/05 04:53:09;;;;;;;5.72;4.50;;;10.50;63.90;;;;;;5100903;28;20016;-68
2021/03/05 04:55:35;;;;;;;7.35;5.05;;;10.50;63.80;;;;;;5102009;28;20026;-68
2021/03/05 04:58:01;;;;;;;7.13;4.70;;;10.50;63.80;;;;;;5101832;28;20371;-68
2021/03/05 05:00:27;;;;;;;6.82;4.35;;;10.50;63.80;;;;;;5101976;28;20028;-68
2021/03/05 05:02:53;;;;;;;4.85;3.80;;;10.50;63.80;;;;;;5100732;28;20316;-68
2021/03/05 05:05:19;;;;;;;7.15;4.60;;;10.50;63.80;;;;;;5101877;28;20069;-67
2021/03/05 05:07:45;;;;;;;7.03;4.40;;;10.50;63.80;;;;;;5101884;28;20027;-67
2021/03/05 05:10:11;;;;;;;7.30;4.65;;;10.50;63.80;;;;;;5101857;28;20024;-68
2021/03/05 05:12:37;;;;;;;7.47;4.22;;;10.50;63.80;;;;;;5103887;28;20024;-68
2021/03/05 05:15:05;;;;;;;5.80;4.28;;;10.50;63.80;;;;;;5105765;28;20023;-68
2021/03/05 05:17:31;;;;;;;8.48;4.97;;;10.50;63.90;;;;;;5105613;28;20022;-68
2021/03/05 05:19:57;;;;;;;5.75;4.20;;;10.50;63.80;;;;;;5105691;28;20051;-68
2021/03/05 05:22:22;;;;;;;7.78;4.80;;;10.50;63.80;;;;;;5105587;28;20027;-68
2021/03/05 05:24:48;;;;;;;7.35;4.78;;;10.50;63.80;;;;;;5105549;28;20015;-67
2021/03/05 05:27:14;;;;;;;7.57;4.78;;;10.50;63.90;;;;;;5105506;28;20311;-68
2021/03/05 05:29:40;;;;;;;9.38;5.43;;;10.50;63.90;;;;;;5105478;28;20027;-68
2021/03/05 05:32:06;;;;;;;6.18;4.28;;;10.50;63.90;;;;;;5105445;28;20024;-67
2021/03/05 05:34:31;;;;;;;7.72;4.72;;;10.50;63.80;;;;;;5105340;28;20258;-68
2021/03/05 05:36:57;;;;;;;7.53;4.95;;;10.50;63.70;;;;;;5105306;28;20020;-68
2021/03/05 05:39:23;;;;;;;6.65;4.20;;;10.50;64.40;;;;;;5105031;28;20135;-67
2021/03/05 05:41:50;;;;;;;7.57;4.57;;;10.50;63.80;;;;;;5105230;28;20071;-67
2021/03/05 05:44:16;;;;;;;7.75;4.82;;;10.50;63.80;;;;;;5105206;28;20312;-67
2021/03/05 05:46:42;;;;;;;5.82;4.60;;;10.50;63.80;;;;;;5105140;28;20035;-68
2021/03/05 05:49:10;;;;;;;6.80;4.40;;;10.50;63.70;;;;;;5105097;28;20023;-68
2021/03/05 05:51:39;;;;;;;6.90;4.45;;;10.50;63.60;;;;;;5105051;28;20336;-68
2021/03/05 05:54:10;;;;;;;6.93;4.30;;;10.50;63.70;;;;;;5105007;28;20051;-68
2021/03/05 05:56:44;;;;;;;6.05;4.18;;;10.50;63.80;;;;;;5104924;28;20020;-67
2021/03/05 05:59:09;;;;;;;8.65;4.72;;;10.50;63.80;;;;;;5104853;28;20057;-68
2021/03/05 06:01:35;;;;;;;6.35;4.28;;;10.50;63.80;;;;;;5104858;28;20012;-67
2021/03/05 06:04:02;;;;;;;7.40;5.00;;;10.50;64.00;;;;;;5104812;28;20406;-69
2021/03/05 06:06:29;;;;;;;6.53;4.15;;;10.50;63.80;;;;;;5104785;28;20023;-68
2021/03/05 06:09:00;;;;;;;6.43;3.97;;;10.50;63.60;;;;;;5104725;28;20083;-67
2021/03/05 06:11:40;;;;;;;6.18;4.20;;;10.50;63.50;;;;;;5104691;28;20069;-67
2021/03/05 06:14:12;;;;;;;8.27;4.28;;;10.50;63.60;;;;;;5104645;28;20181;-68
2021/03/05 06:16:56;;;;;;;5.60;4.35;;;10.50;63.60;;;;;;5104547;28;20065;-69
2021/03/05 06:19:24;;;;;;;6.15;4.65;;;10.50;63.60;;;;;;5104444;28;20024;-68
2021/03/05 06:21:50;;;;;;;7.60;4.37;;;10.50;63.60;;;;;;5104525;28;20364;-67
2021/03/05 06:24:18;;;;;;;7.53;4.50;;;10.50;63.70;;;;;;5103001;28;20016;-68
2021/03/05 06:26:58;;;;;;;7.32;5.07;;;10.50;63.70;;;;;;5103223;28;20050;-68
2021/03/05 06:29:47;;;;;;;7.22;4.50;;;10.50;63.70;;;;;;5104358;28;20054;-67
2021/03/05 06:32:18;;;;;;;7.28;4.50;;;10.50;63.80;;;;;;5104295;28;20047;-68
2021/03/05 06:34:45;;;;;;;6.85;4.63;;;10.50;63.80;;;;;;5104244;28;20044;-67
2021/03/05 06:37:11;;;;;;;6.22;4.32;;;10.50;63.70;;;;;;5104200;28;20023;-68
2021/03/05 06:39:37;;;;;;;7.13;4.53;;;10.50;63.60;;;;;;5103976;28;20111;-68
2021/03/05 06:42:04;;;;;;;7.57;4.90;;;10.50;63.60;;;;;;5104084;28;20035;-67
2021/03/05 06:44:31;;;;;;;7.38;4.70;;;10.50;63.60;;;;;;5104062;28;20039;-68
2021/03/05 06:47:06;;;;;;;5.40;3.63;;;10.50;63.70;;;;;;5104033;28;20254;-67
2021/03/05 06:49:32;;;;;;;5.95;3.85;;;10.50;63.70;;;;;;5103928;28;20057;-68
2021/03/05 06:51:58;;;;;;;6.82;4.40;;;10.50;63.80;;;;;;5103917;28;20040;-69
2021/03/05 06:54:31;;;;;;;8.10;4.90;;;10.50;63.90;;;;;;5103849;28;20268;-67
2021/03/05 06:56:58;;;;;;;7.20;4.60;;;10.50;63.80;;;;;;5103821;28;20280;-68
2021/03/05 06:59:26;;;;;;;5.70;4.03;;;10.50;63.80;;;;;;5103656;28;20308;-67
2021/03/05 07:01:58;;;;;;;7.93;4.20;;;10.50;63.70;;;;;;5103680;28;20028;-68
2021/03/05 07:04:25;;;;;;;7.35;4.80;;;10.50;63.60;;;;;;5103645;28;20012;-67
2021/03/05 07:07:10;;;;;;;6.72;5.03;;;10.50;63.60;;;;;;5103614;28;20026;-68
2021/03/05 07:09:35;;;;;;;7.50;5.15;;;10.50;63.60;;;;;;5102393;28;20024;-67
2021/03/05 07:12:16;;;;;;;9.43;4.60;;;10.50;63.70;;;;;;5103483;28;20058;-67
2021/03/05 07:15:04;;;;;;;6.75;4.40;;;10.50;63.60;;;;;;5103411;28;20200;-68
2021/03/05 07:17:30;;;;;;;7.18;4.80;;;10.50;63.60;;;;;;5103355;28;20239;-68
2021/03/05 07:19:56;;;;;;;6.05;4.32;;;10.50;63.60;;;;;;5103323;28;20050;-67
2021/03/05 07:22:27;;;;;;;7.57;4.50;;;10.50;63.60;;;;;;5103308;28;20020;-67
2021/03/05 07:24:56;;;;;;;5.97;4.60;;;10.50;63.50;;;;;;5102014;28;20057;-67
2021/03/05 07:27:41;;;;;;;7.00;4.85;;;10.50;63.50;;;;;;5103202;28;20364;-68
2021/03/05 07:30:28;;;;;;;7.38;4.45;;;10.50;63.50;;;;;;5102034;28;20039;-68
2021/03/05 07:32:56;;;;;;;7.53;4.90;;;10.50;63.50;;;;;;5102914;28;20027;-68
2021/03/05 07:35:40;;;;;;;6.88;4.15;;;10.50;63.50;;;;;;5102744;28;20047;-67
2021/03/05 07:38:13;;;;;;;6.18;3.70;;;10.50;63.60;;;;;;5102778;28;20053;-68
2021/03/05 07:40:43;;;;;;;5.97;4.07;;;10.50;63.50;;;;;;5101851;28;20016;-67
2021/03/05 07:43:10;;;;;;;6.97;4.22;;;10.50;63.50;;;;;;5102965;28;20075;-67
2021/03/05 07:45:36;;;;;;;6.20;4.25;;;10.50;63.50;;;;;;5102848;28;20008;-67
2021/03/05 07:48:03;;;;;;;7.85;4.97;;;10.50;63.50;;;;;;5102781;28;20097;-68
2021/03/05 07:50:30;;;;;;;7.35;4.25;;;10.50;63.50;;;;;;5102820;28;20058;-68
2021/03/05 07:52:59;;;;;;;6.82;4.65;;;10.50;63.50;;;;;;5102632;28;20047;-67
2021/03/05 07:55:36;;;;;;;6.65;4.40;;;10.50;63.60;;;;;;5102780;28;20019;-67
2021/03/05 07:58:02;;;;;;;4.95;4.13;;;10.50;63.50;;;;;;5102453;28;20353;-66
2021/03/05 08:00:47;;;;;;;6.55;3.97;;;10.50;63.60;;;;;;5102664;28;20026;-67
2021/03/05 08:03:14;;;;;;;6.32;4.07;;;10.50;63.70;;;;;;5102602;28;20053;-66
2021/03/05 08:05:43;;;;;;;5.70;4.38;;;10.50;63.70;;;;;;5102568;28;20020;-67
2021/03/05 08:08:26;;;;;;;6.30;4.65;;;10.50;63.70;;;;;;5102562;28;20020;-67
2021/03/05 08:10:57;;;;;;;5.40;4.25;;;10.50;63.60;;;;;;5102393;28;20035;-67
2021/03/05 08:16:30;;;;;;;6.70;4.15;;;10.50;63.60;;;;;;5102447;28;20012;-67
2021/03/05 08:19:04;;;;;;;6.78;4.28;;;10.50;63.70;;;;;;5102358;28;20039;-68
2021/03/05 08:21:57;;;;;;;6.05;4.60;;;10.50;63.80;;;;;;5102314;28;20046;-68
2021/03/05 08:24:30;;;;;;;4.93;3.85;;;10.50;63.70;;;;;;5102388;28;20012;-67
2021/03/05 08:27:01;;;;;;;9.85;4.35;;;10.50;63.70;;;;;;5102329;28;20304;-67
2021/03/05 08:30:06;;;;;;;6.35;4.10;;;10.50;63.70;;;;;;5101181;28;20027;-68
2021/03/05 08:32:32;;;;;;;6.82;4.35;;;10.50;63.80;;;;;;5102253;28;20062;-67
2021/03/05 08:35:01;;;;;;;6.13;4.25;;;10.50;63.80;;;;;;5102217;28;20012;-68
2021/03/05 08:37:28;;;;;;;6.53;3.72;;;10.40;63.80;;;;;;5101067;28;20220;-68
2021/03/05 08:40:16;;;;;;;5.45;4.15;;;10.50;63.80;;;;;;5101902;28;20044;-67
2021/03/05 08:42:53;;;;;;;5.57;4.07;;;10.50;63.80;;;;;;5092598;28;20065;-68
2021/03/05 08:45:30;;;;;;;6.22;4.15;;;10.50;63.80;;;;;;5102163;28;20020;-67
2021/03/05 08:48:01;;;;;;;6.28;3.92;;;10.50;63.80;;;;;;5104834;28;20208;-67
2021/03/05 08:50:30;;;;;;;5.57;4.13;;;10.50;63.70;;;;;;5106328;28;20024;-68
2021/03/05 08:53:00;;;;;;;;;;;10.50;63.70;;;;;;5106710;28;20032;-67
2021/03/05 08:55:30;;;;;;;5.50;3.90;;;10.50;63.60;;;;;;5106163;28;19900;-67
2021/03/05 08:57:57;;;;;;;8.65;4.63;;;10.50;63.60;;;;;;5106074;28;20071;-68
2021/03/05 09:00:30;;;;;;;8.15;5.07;;;10.50;63.60;;;;;;5104879;28;20032;-67
2021/03/05 09:03:05;;;;;;;6.63;4.43;;;10.50;63.70;;;;;;5106053;28;20016;-67
2021/03/05 09:05:33;;;;;;;5.75;4.32;;;10.50;63.50;;;;;;5105975;28;20238;-67
2021/03/05 09:07:59;;;;;;;6.35;4.30;;;10.50;63.60;;;;;;5105974;28;20065;-68
2021/03/05 09:10:37;;;;;;;5.63;3.97;;;10.50;63.50;;;;;;5105902;28;20039;-67
2021/03/05 09:13:03;;;;;;;6.45;4.40;;;10.50;63.50;;;;;;5105830;28;20219;-67
2021/03/05 09:15:45;;;;;;;6.95;4.40;;;10.50;63.50;;;;;;5105772;28;20016;-66
2021/03/05 09:18:13;;;;;;;5.40;3.83;;;10.50;63.50;;;;;;5105718;28;20044;-68
2021/03/05 09:20:48;;;;;;;7.20;4.25;;;10.50;63.50;;;;;;5105703;28;20016;-67
2021/03/05 09:23:21;;;;;;;4.78;3.47;;;10.60;63.60;;;;;;5105667;28;20023;-67
2021/03/05 09:25:52;;;;;;;5.60;3.95;;;10.60;63.60;;;;;;5105915;28;20026;-68
2021/03/05 09:28:19;;;;;;;6.78;4.38;;;10.50;63.50;;;;;;5105555;28;20100;-68
2021/03/05 09:30:54;;;;;;;6.38;4.32;;;10.50;63.50;;;;;;5105541;28;20023;-67
2021/03/05 09:33:34;;;;;;;10.55;4.10;;;10.50;63.60;;;;;;5105432;28;20069;-68
2021/03/05 09:36:02;;;;;;;6.68;4.10;;;10.50;63.60;;;;;;5105478;28;20066;-67
2021/03/05 09:38:28;;;;;;;4.57;3.38;;;10.50;63.70;;;;;;5105210;28;20071;-68
2021/03/05 09:40:54;;;;;;;6.15;4.35;;;10.50;63.60;;;;;;5105305;28;20039;-68
2021/03/05 09:43:20;;;;;;;4.88;3.85;;;10.50;63.50;;;;;;5105286;28;20308;-68
2021/03/05 09:45:51;;;;;;;6.53;4.18;;;10.50;63.50;;;;;;5105289;28;20246;-67
2021/03/05 09:48:34;;;;;;;6.78;4.10;;;10.60;63.60;;;;;;5105258;28;20062;-68
2021/03/05 09:51:08;;;;;;;6.57;3.80;;;10.50;63.50;;;;;;5105172;28;20047;-68
2021/03/05 09:53:38;;;;;;;4.15;3.65;;;10.60;63.60;;;;;;5105119;28;20332;-66
2021/03/05 09:56:08;;;;;;;6.70;4.55;;;10.60;63.60;;;;;;5105054;28;20022;-67
2021/03/05 09:58:35;;;;;;;6.22;4.18;;;10.60;63.60;;;;;;5104340;28;20242;-67
2021/03/05 10:01:02;;;;;;;6.32;4.25;;;10.60;63.60;;;;;;5104936;28;20019;-68
2021/03/05 10:03:29;;;;;;;6.28;3.97;;;10.60;63.60;;;;;;5104944;28;20304;-68
2021/03/05 10:05:56;;;;;;;6.85;4.22;;;10.50;63.50;;;;;;5104834;28;20083;-67
2021/03/05 10:08:28;;;;;;;7.40;4.45;;;10.50;63.60;;;;;;5104751;28;20070;-68
2021/03/05 10:11:05;;;;;;;5.70;3.67;;;10.60;63.60;;;;;;5105025;28;20040;-68
2021/03/05 10:13:46;;;;;;;6.07;4.22;;;10.60;63.70;;;;;;5104709;28;20061;-67
2021/03/05 10:16:22;;;;;;;6.07;4.20;;;10.50;63.60;;;;;;5104693;28;20027;-68
2021/03/05 10:18:50;;;;;;;7.07;4.50;;;10.60;63.60;;;;;;5104575;28;20031;-68
2021/03/05 10:21:18;;;;;;;5.80;4.38;;;10.60;63.60;;;;;;5104566;28;20016;-68
2021/03/05 10:23:44;;;;;;;5.30;3.97;;;10.60;63.60;;;;;;5104509;28;20024;-67
2021/03/05 10:26:14;;;;;;;7.18;4.72;;;10.60;63.60;;;;;;5104464;28;20018;-68
2021/03/05 10:28:40;;;;;;;6.00;4.43;;;10.60;63.60;;;;;;5104478;28;20031;-68
2021/03/05 10:31:06;;;;;;;7.25;4.50;;;10.60;63.60;;;;;;5104341;28;20087;-67
2021/03/05 10:33:45;;;;;;;6.03;4.53;;;10.60;63.60;;;;;;5104274;28;20031;-67
2021/03/05 10:36:13;;;;;;;8.07;4.45;;;10.60;63.80;;;;;;5104502;28;20255;-68
2021/03/05 10:38:42;;;;;;;8.55;4.95;;;10.60;63.80;;;;;;5103858;28;20044;-67
2021/03/05 10:41:10;;;;;;;6.80;4.88;;;10.50;63.80;;;;;;5104275;28;20073;-68
2021/03/05 10:43:39;;;;;;;6.43;4.53;;;10.60;63.80;;;;;;5104105;28;20020;-67
2021/03/05 10:46:08;;;;;;;6.57;4.82;;;10.50;63.80;;;;;;5104091;28;20022;-67
2021/03/05 10:48:34;;;;;;;7.65;4.93;;;10.50;63.80;;;;;;5104088;28;20015;-67
2021/03/05 10:51:01;;;;;;;6.35;4.10;;;10.50;63.80;;;;;;5102880;28;20209;-67
2021/03/05 10:53:26;;;;;;;7.50;4.70;;;10.50;63.90;;;;;;5103952;28;20049;-67
2021/03/05 10:55:52;;;;;;;7.07;3.80;;;10.60;63.90;;;;;;5103868;28;20032;-66
2021/03/05 10:58:18;;;;;;;7.82;4.70;;;10.50;63.80;;;;;;5103757;28;20332;-68
2021/03/05 11:00:46;;;;;;;6.38;4.28;;;10.50;63.80;;;;;;5103799;28;20365;-67
2021/03/05 11:03:11;;;;;;;7.07;4.68;;;10.50;63.80;;;;;;5102609;28;20031;-68
2021/03/05 11:05:37;;;;;;;8.18;4.88;;;10.50;63.80;;;;;;5102534;28;20020;-68
2021/03/05 11:08:10;;;;;;;6.80;4.55;;;10.60;63.80;;;;;;5102534;28;20051;-67
2021/03/05 11:10:36;;;;;;;7.90;4.30;;;10.50;63.70;;;;;;5102673;28;20019;-68
2021/03/05 11:13:03;;;;;;;7.18;4.53;;;10.50;63.80;;;;;;5103484;28;20051;-68
2021/03/05 11:15:29;;;;;;;6.45;4.40;;;10.50;63.80;;;;;;5102997;28;20332;-67
2021/03/05 11:17:56;;;;;;;5.90;4.45;;;10.50;63.90;;;;;;5103392;28;20028;-68
2021/03/05 11:20:21;;;;;;;6.13;4.38;;;10.50;63.80;;;;;;5103436;28;20241;-68
2021/03/05 11:22:53;;;;;;;5.25;4.07;;;10.50;63.80;;;;;;5103418;28;20194;-68
2021/03/05 11:25:20;;;;;;;7.57;3.95;;;10.50;63.80;;;;;;5103359;28;20185;-68
2021/03/05 11:27:49;;;;;;;6.38;4.20;;;10.60;64.40;;;;;;5103296;28;20061;-67
2021/03/05 11:30:15;;;;;;;6.90;4.93;;;10.50;63.70;;;;;;5103136;28;20089;-68
2021/03/05 11:32:41;;;;;;;6.88;4.05;;;10.60;63.80;;;;;;5103186;28;20012;-67
2021/03/05 11:35:07;;;;;;;5.82;4.38;;;10.50;63.70;;;;;;5103174;28;20027;-68
2021/03/05 11:37:34;;;;;;;7.43;4.65;;;10.50;63.80;;;;;;5101958;28;20326;-68
2021/03/05 11:40:00;;;;;;;5.10;3.83;;;10.60;63.80;;;;;;5101759;28;20055;-67
2021/03/05 11:42:25;;;;;;;8.93;4.78;;;10.50;63.70;;;;;;5103083;28;20016;-67
2021/03/05 11:44:51;;;;;;;5.70;4.18;;;10.50;63.80;;;;;;5103009;28;20016;-67
2021/03/05 11:47:17;;;;;;;7.35;4.25;;;10.60;63.70;;;;;;5102987;28;20065;-68
2021/03/05 11:49:44;;;;;;;5.05;3.72;;;10.60;63.70;;;;;;5101874;28;20020;-67
2021/03/05 11:52:10;;;;;;;6.05;4.35;;;10.60;63.70;;;;;;5102607;28;20031;-67
2021/03/05 11:54:38;;;;;;;5.47;4.03;;;10.60;63.60;;;;;;5102782;28;20015;-68
2021/03/05 11:57:06;;;;;;;9.57;4.70;;;10.60;63.60;;;;;;5102832;28;20080;-69
2021/03/05 11:59:32;;;;;;;6.63;4.53;;;10.60;63.60;;;;;;5102608;28;20024;-69
2021/03/05 12:01:58;;;;;;;5.05;3.63;;;10.70;63.60;;;;;;5102752;28;20020;-68
2021/03/05 12:04:24;;;;;;;5.82;3.80;;;10.60;63.50;;;;;;5102627;28;20027;-68
2021/03/05 12:06:51;;;;;;;7.22;4.20;;;10.60;63.60;;;;;;5102672;28;20016;-67
2021/03/05 12:09:17;;;;;;;6.88;4.15;;;10.60;63.60;;;;;;5101192;28;20024;-69
2021/03/05 12:11:43;;;;;;;6.03;3.97;;;10.60;63.60;;;;;;5102504;28;20051;-68
2021/03/05 12:14:09;;;;;;;6.82;4.47;;;10.70;64.00;;;;;;5102548;28;20020;-69
2021/03/05 12:16:35;;;;;;;4.60;3.40;;;10.70;63.30;;;;;;5102515;28;20047;-68
2021/03/05 12:19:02;;;;;;;5.50;4.18;;;10.70;63.30;;;;;;5102278;28;20019;-69
2021/03/05 12:21:28;;;;;;;5.93;3.95;;;10.70;63.10;;;;;;5102241;28;20076;-68
2021/03/05 12:23:54;;;;;;;6.95;4.22;;;10.70;63.00;;;;;;5102424;28;20016;-69
2021/03/05 12:26:20;;;;;;;6.03;4.15;;;10.80;63.00;;;;;;5102234;28;20048;-67
2021/03/05 12:28:47;;;;;;;7.07;4.82;;;10.70;63.20;;;;;;5102380;28;20016;-68
2021/03/05 12:31:13;;;;;;;6.28;4.20;;;10.70;63.20;;;;;;5102611;28;20043;-67
2021/03/05 12:33:43;;;;;;;5.18;3.63;;;10.70;63.10;;;;;;5101145;28;20016;-68
2021/03/05 12:36:09;;;;;;;7.35;4.20;;;10.70;63.10;;;;;;5102315;28;20019;-68
2021/03/05 12:38:35;;;;;;;6.00;4.40;;;10.80;63.00;;;;;;5101021;28;20028;-68
2021/03/05 12:41:00;;;;;;;4.95;3.85;;;10.80;63.00;;;;;;5101724;28;20043;-68
2021/03/05 12:43:26;;;;;;;5.70;4.47;;;10.80;63.10;;;;;;5102245;28;20035;-68
2021/03/05 12:45:52;;;;;;;5.57;3.88;;;10.80;63.00;;;;;;5102229;28;20081;-67
2021/03/05 12:48:18;;;;;;;5.55;3.90;;;10.80;62.90;;;;;;5102180;28;20020;-69
2021/03/05 12:50:44;;;;;;;5.85;4.38;;;10.90;62.60;;;;;;5100973;28;20019;-68
2021/03/05 12:53:11;;;;;;;5.10;3.83;;;10.90;62.60;;;;;;5102154;28;20083;-68
2021/03/05 12:55:37;;;;;;;6.25;4.22;;;10.90;62.60;;;;;;5102136;28;20034;-68
2021/03/05 12:58:04;;;;;;;7.25;3.97;;;10.90;62.70;;;;;;5100773;28;20052;-68
2021/03/05 13:00:30;;;;;;;6.50;4.30;;;10.90;62.70;;;;;;5100907;28;20027;-67